createdAt,value
2019-03-06T00:01:37.108Z,94.43
2019-03-06T00:04:06.022Z,97.73
2019-03-06T00:06:35.015Z,94.67
2019-03-06T00:09:05.738Z,96.10
2019-03-06T00:11:34.594Z,89.50
2019-03-06T00:14:03.553Z,99.20
2019-03-06T00:16:32.481Z,94.83
2019-03-06T00:19:01.365Z,96.40
2019-03-06T00:21:30.213Z,101.10
2019-03-06T00:23:59.097Z,99.60
2019-03-06T00:26:27.987Z,101.17
2019-03-06T00:28:56.810Z,102.37
2019-03-06T00:31:25.664Z,99.47
2019-03-06T00:33:54.501Z,102.87
2019-03-06T00:36:24.782Z,103.07
2019-03-06T00:38:53.737Z,109.10
2019-03-06T00:41:41.575Z,108.87
2019-03-06T00:44:10.530Z,110.10
2019-03-06T00:46:39.345Z,113.73
2019-03-06T00:49:08.233Z,114.77
2019-03-06T00:51:37.112Z,112.43
2019-03-06T00:54:05.941Z,113.13
2019-03-06T00:56:34.809Z,110.07
2019-03-06T00:59:03.949Z,111.80
2019-03-06T01:01:32.774Z,109.27
2019-03-06T01:04:01.660Z,112.37
2019-03-06T01:06:30.411Z,112.50
2019-03-06T01:08:59.651Z,114.70
2019-03-06T01:11:28.769Z,115.90
2019-03-06T01:13:57.563Z,116.33
2019-03-06T01:16:26.371Z,118.97
2019-03-06T01:18:55.402Z,119.63
2019-03-06T01:21:24.348Z,120.17
2019-03-06T01:23:53.154Z,125.83
2019-03-06T01:26:21.946Z,126.00
2019-03-06T01:28:50.737Z,123.93
2019-03-06T01:31:19.781Z,124.40
2019-03-06T01:34:19.470Z,125.33
2019-03-06T01:37:06.099Z,123.33
2019-03-06T01:39:52.563Z,126.33
2019-03-06T01:42:51.782Z,130.33
2019-03-06T01:45:20.838Z,128.20
2019-03-06T01:47:49.700Z,132.27
2019-03-06T01:50:18.543Z,132.87
2019-03-06T01:52:47.494Z,130.93
2019-03-06T01:55:16.279Z,133.90
2019-03-06T01:57:45.082Z,135.63
2019-03-06T02:00:16.649Z,134.83
2019-03-06T02:02:45.577Z,134.23
2019-03-06T02:05:14.381Z,133.97
2019-03-06T02:07:43.135Z,137.53
2019-03-06T02:10:12.858Z,139.23
2019-03-06T02:12:41.795Z,138.07
2019-03-06T02:15:11.369Z,145.30
2019-03-06T02:17:40.182Z,139.03
2019-03-06T02:20:10.067Z,136.90
2019-03-06T02:22:38.917Z,134.70
2019-03-06T02:25:07.818Z,138.67
2019-03-06T02:27:36.627Z,138.73
2019-03-06T02:30:07.155Z,124.13
2019-03-06T02:32:36.016Z,125.07
2019-03-06T02:35:05.031Z,122.13
2019-03-06T02:37:33.874Z,119.93
2019-03-06T02:40:02.672Z,112.67
2019-03-06T02:42:31.585Z,111.43
2019-03-06T02:45:00.493Z,111.60
2019-03-06T02:47:29.407Z,104.57
2019-03-06T02:49:58.268Z,99.63
2019-03-06T02:52:27.095Z,111.50
2019-03-06T02:54:56.224Z,107.17
2019-03-06T02:57:25.069Z,105.87
2019-03-06T03:00:07.554Z,102.53
2019-03-06T03:02:38.593Z,107.23
2019-03-06T03:05:40.097Z,104.47
2019-03-06T03:08:08.914Z,102.10
2019-03-06T03:10:37.857Z,107.87
2019-03-06T03:13:07.273Z,91.80
2019-03-06T03:15:37.229Z,100.27
2019-03-06T03:18:06.235Z,107.00
2019-03-06T03:20:35.329Z,106.27
2019-03-06T03:23:04.115Z,104.70
2019-03-06T03:25:32.948Z,106.63
2019-03-06T03:28:01.810Z,107.10
2019-03-06T03:30:30.694Z,107.37
2019-03-06T03:32:59.554Z,111.10
2019-03-06T03:35:28.396Z,112.80
2019-03-06T03:37:57.549Z,90.27
2019-03-06T03:40:45.470Z,111.10
2019-03-06T03:43:14.404Z,97.10
2019-03-06T03:45:43.205Z,110.40
2019-03-06T03:48:12.068Z,102.53
2019-03-06T03:50:40.898Z,105.13
2019-03-06T03:53:09.724Z,112.20
2019-03-06T03:55:38.785Z,106.13
2019-03-06T03:58:07.602Z,114.00
2019-03-06T04:00:36.612Z,109.27
2019-03-06T04:03:05.676Z,112.37
2019-03-06T04:05:34.501Z,116.07
2019-03-06T04:08:03.289Z,110.67
2019-03-06T04:10:32.159Z,106.93
2019-03-06T04:13:00.961Z,113.67
2019-03-06T04:15:30.466Z,113.97
2019-03-06T04:17:59.383Z,110.87
2019-03-06T04:20:28.198Z,112.50
2019-03-06T04:22:57.022Z,105.10
2019-03-06T04:25:25.856Z,108.73
2019-03-06T04:27:54.569Z,112.70
2019-03-06T04:30:23.385Z,110.93
2019-03-06T04:32:52.241Z,112.63
2019-03-06T04:35:21.001Z,111.73
2019-03-06T04:37:49.750Z,110.27
2019-03-06T04:40:19.283Z,110.77
2019-03-06T04:42:48.193Z,116.07
2019-03-06T04:45:17.043Z,107.17
2019-03-06T04:47:45.936Z,110.27
2019-03-06T04:50:14.662Z,107.40
2019-03-06T04:52:43.785Z,104.97
2019-03-06T04:55:12.743Z,105.97
2019-03-06T04:57:41.499Z,105.60
2019-03-06T05:00:10.648Z,109.00
2019-03-06T05:02:39.640Z,105.77
2019-03-06T05:05:08.887Z,104.87
2019-03-06T05:07:37.694Z,103.30
2019-03-06T05:10:06.632Z,104.67
2019-03-06T05:12:35.427Z,102.40
2019-03-06T05:15:04.703Z,101.47
2019-03-06T05:17:58.336Z,98.73
2019-03-06T05:20:27.097Z,100.10
2019-03-06T05:22:55.949Z,101.53
2019-03-06T05:25:24.821Z,93.43
2019-03-06T05:27:53.569Z,104.60
2019-03-06T05:30:24.556Z,98.03
2019-03-06T05:32:53.544Z,100.50
2019-03-06T05:35:29.906Z,98.97
2019-03-06T05:38:00.378Z,98.63
2019-03-06T05:40:29.148Z,98.27
2019-03-06T05:42:57.977Z,96.60
2019-03-06T05:45:26.829Z,95.67
2019-03-06T05:47:55.647Z,97.93
2019-03-06T05:50:24.446Z,97.00
2019-03-06T05:52:53.418Z,98.83
2019-03-06T05:55:22.191Z,98.27
2019-03-06T05:57:50.923Z,98.83
2019-03-06T06:00:21.106Z,99.47
2019-03-06T06:02:49.908Z,98.67
2019-03-06T06:05:18.642Z,92.07
2019-03-06T06:07:47.503Z,94.67
2019-03-06T06:10:16.409Z,97.73
2019-03-06T06:12:45.158Z,96.37
2019-03-06T06:15:14.094Z,96.57
2019-03-06T06:17:42.961Z,88.40
2019-03-06T06:20:12.424Z,95.07
2019-03-06T06:23:02.777Z,91.23
2019-03-06T06:25:32.671Z,96.83
2019-03-06T06:28:01.451Z,95.83
2019-03-06T06:30:30.545Z,92.57
2019-03-06T06:32:59.417Z,85.93
2019-03-06T06:35:28.989Z,96.27
2019-03-06T06:37:58.487Z,92.07
2019-03-06T06:40:27.946Z,92.30
2019-03-06T06:42:57.424Z,91.17
2019-03-06T06:45:26.835Z,82.53
2019-03-06T06:48:09.313Z,88.37
2019-03-06T06:50:40.692Z,88.40
2019-03-06T06:53:48.687Z,85.83
2019-03-06T06:56:57.907Z,82.53
2019-03-06T06:59:35.591Z,88.60
2019-03-06T07:03:13.226Z,82.10
2019-03-06T07:05:57.202Z,44.23
2019-03-06T07:08:49.325Z,78.10
2019-03-06T07:11:29.456Z,75.00
2019-03-06T07:14:10.919Z,81.50
2019-03-06T07:16:52.667Z,65.80
2019-03-06T07:19:35.061Z,79.60
2019-03-06T07:22:26.416Z,70.57
2019-03-06T07:25:05.697Z,72.03
2019-03-06T07:27:53.398Z,65.50
2019-03-06T07:30:34.395Z,61.43
2019-03-06T07:33:17.989Z,64.40
2019-03-06T07:36:19.875Z,52.87
2019-03-06T07:38:50.617Z,61.73
2019-03-06T07:41:41.416Z,65.17
2019-03-06T07:44:30.408Z,52.93
2019-03-06T07:47:15.127Z,57.10
2019-03-06T07:49:54.031Z,55.53
2019-03-06T07:52:37.879Z,51.77
2019-03-06T07:55:33.141Z,49.07
2019-03-06T07:58:54.879Z,51.10
2019-03-06T08:01:26.534Z,50.67
2019-03-06T08:04:02.367Z,47.07
2019-03-06T08:06:31.810Z,41.97
2019-03-06T08:09:01.264Z,32.60
2019-03-06T08:11:58.638Z,46.43
2019-03-06T08:15:03.246Z,45.10
2019-03-06T08:18:10.076Z,42.17
2019-03-06T08:20:56.853Z,45.37
2019-03-06T08:23:52.381Z,42.33
2019-03-06T08:26:21.739Z,41.60
2019-03-06T08:28:51.095Z,62.50
2019-03-06T08:31:39.514Z,77.60
2019-03-06T08:34:09.020Z,78.47
2019-03-06T08:36:38.485Z,76.13
2019-03-06T08:39:18.546Z,78.43
2019-03-06T08:41:47.898Z,84.23
2019-03-06T08:44:17.368Z,73.80
2019-03-06T08:47:05.819Z,82.57
2019-03-06T08:50:09.103Z,87.43
2019-03-06T08:52:48.440Z,90.27
2019-03-06T08:55:42.532Z,78.57
2019-03-06T08:58:17.830Z,92.83
2019-03-06T09:01:10.546Z,92.90
2019-03-06T09:04:09.625Z,86.53
2019-03-06T09:06:53.719Z,90.97
2019-03-06T09:09:35.586Z,85.73
2019-03-06T09:12:26.835Z,63.97
2019-03-06T09:15:21.577Z,86.93
2019-03-06T09:18:15.779Z,83.20
2019-03-06T09:21:08.293Z,81.33
2019-03-06T09:23:55.651Z,75.00
2019-03-06T09:26:39.333Z,78.87
2019-03-06T09:29:18.770Z,76.93
2019-03-06T09:31:54.972Z,79.90
2019-03-06T09:34:47.906Z,77.80
2019-03-06T09:37:39.051Z,75.10
2019-03-06T09:40:33.783Z,76.57
2019-03-06T09:43:33.811Z,76.20
2019-03-06T09:46:27.417Z,76.47
2019-03-06T09:49:11.740Z,74.63
2019-03-06T09:52:07.439Z,71.47
2019-03-06T09:54:55.777Z,72.73
2019-03-06T09:57:43.000Z,72.67
2019-03-06T10:00:34.887Z,75.90
2019-03-06T10:03:21.754Z,74.17
2019-03-06T10:06:06.711Z,74.83
2019-03-06T10:09:08.198Z,74.53
2019-03-06T10:11:58.250Z,77.10
2019-03-06T10:15:01.042Z,43.03
2019-03-06T10:17:40.241Z,76.90
2019-03-06T10:20:12.409Z,70.07
2019-03-06T10:22:41.225Z,69.50
2019-03-06T10:25:11.069Z,63.87
2019-03-06T10:27:40.149Z,61.30
2019-03-06T10:30:11.041Z,60.77
2019-03-06T10:32:40.087Z,60.10
2019-03-06T10:35:09.341Z,63.67
2019-03-06T10:37:38.197Z,34.53
2019-03-06T10:40:08.052Z,68.80
2019-03-06T10:42:36.879Z,64.13
2019-03-06T10:45:06.125Z,66.70
2019-03-06T10:47:35.565Z,49.03
2019-03-06T10:50:04.536Z,43.30
2019-03-06T10:52:33.319Z,64.30
2019-03-06T10:55:02.285Z,66.83
2019-03-06T10:57:31.268Z,64.67
2019-03-06T11:00:00.090Z,51.70
2019-03-06T11:02:28.967Z,64.87
2019-03-06T11:05:06.277Z,67.73
2019-03-06T11:07:35.273Z,68.83
2019-03-06T11:10:04.863Z,65.90
2019-03-06T11:12:33.801Z,65.17
2019-03-06T11:15:02.918Z,67.33
2019-03-06T11:17:31.730Z,64.07
2019-03-06T11:20:00.681Z,62.07
2019-03-06T11:22:29.805Z,56.20
2019-03-06T11:24:58.815Z,65.37
2019-03-06T11:27:28.150Z,65.97
2019-03-06T11:29:57.511Z,65.13
2019-03-06T11:32:26.694Z,55.07
2019-03-06T11:34:56.639Z,58.57
2019-03-06T11:37:25.575Z,58.07
2019-03-06T11:39:55.494Z,54.07
2019-03-06T11:42:24.327Z,49.53
2019-03-06T11:44:53.179Z,46.90
2019-03-06T11:47:22.196Z,57.57
2019-03-06T11:49:51.110Z,58.27
2019-03-06T11:52:20.226Z,61.90
2019-03-06T11:54:49.042Z,46.07
2019-03-06T11:57:17.926Z,62.37
2019-03-06T11:59:47.030Z,62.17
2019-03-06T12:02:15.828Z,60.73
2019-03-06T12:04:44.668Z,56.13
2019-03-06T12:07:13.528Z,64.23
2019-03-06T12:09:42.366Z,63.93
2019-03-06T12:12:11.165Z,61.87
2019-03-06T12:14:40.366Z,61.57
2019-03-06T12:17:09.184Z,61.67
2019-03-06T12:19:38.182Z,62.60
2019-03-06T12:22:07.300Z,63.83
2019-03-06T12:24:36.320Z,62.80
2019-03-06T12:27:05.345Z,69.80
2019-03-06T12:29:34.436Z,65.77
2019-03-06T12:32:03.251Z,65.20
2019-03-06T12:34:32.051Z,63.70
2019-03-06T12:37:01.041Z,59.33
2019-03-06T12:39:48.885Z,57.10
2019-03-06T12:42:17.696Z,56.03
2019-03-06T12:45:05.552Z,52.83
2019-03-06T12:47:34.407Z,52.00
2019-03-06T12:50:06.180Z,54.20
2019-03-06T12:52:33.711Z,52.47
2019-03-06T12:55:04.556Z,51.43
2019-03-06T12:57:33.428Z,54.40
2019-03-06T13:00:02.363Z,50.20
2019-03-06T13:02:31.195Z,53.27
2019-03-06T13:05:00.330Z,56.93
2019-03-06T13:07:29.393Z,54.40
2019-03-06T13:09:58.264Z,53.47
2019-03-06T13:12:29.155Z,52.83
2019-03-06T13:14:57.537Z,51.27
2019-03-06T13:17:26.725Z,52.80
2019-03-06T13:19:55.523Z,53.67
2019-03-06T13:22:25.217Z,53.93
2019-03-06T13:24:54.741Z,55.53
2019-03-06T13:27:24.414Z,57.67
2019-03-06T13:29:53.842Z,55.40
2019-03-06T13:32:25.349Z,47.17
2019-03-06T13:34:59.560Z,57.30
2019-03-06T13:37:29.009Z,57.93
2019-03-06T13:39:58.511Z,57.67
2019-03-06T13:42:28.027Z,55.90
2019-03-06T13:44:57.511Z,53.73
2019-03-06T13:47:27.158Z,57.50
2019-03-06T13:49:56.858Z,58.00
2019-03-06T13:52:27.563Z,57.40
2019-03-06T13:54:58.252Z,56.83
2019-03-06T13:57:27.837Z,55.23
2019-03-06T13:59:58.938Z,49.90
2019-03-06T14:02:28.450Z,56.53
2019-03-06T14:04:58.719Z,55.53
2019-03-06T14:07:28.231Z,57.00
2019-03-06T14:09:58.872Z,56.13
2019-03-06T14:12:28.489Z,58.57
2019-03-06T14:14:59.262Z,57.43
2019-03-06T14:17:28.987Z,59.67
2019-03-06T14:19:58.478Z,60.20
2019-03-06T14:22:27.990Z,55.03
2019-03-06T14:24:57.504Z,62.33
2019-03-06T14:27:27.027Z,61.57
2019-03-06T14:29:56.442Z,62.60
2019-03-06T14:32:26.066Z,61.93
2019-03-06T14:34:55.934Z,61.90
2019-03-06T14:37:27.100Z,64.07
2019-03-06T14:39:59.433Z,61.10
2019-03-06T14:42:29.630Z,63.33
2019-03-06T14:44:59.392Z,61.13
2019-03-06T14:47:30.337Z,66.87
2019-03-06T14:49:59.959Z,66.37
2019-03-06T14:52:29.425Z,67.17
2019-03-06T14:54:58.874Z,64.67
2019-03-06T14:57:28.569Z,64.13
2019-03-06T14:59:58.009Z,68.47
2019-03-06T15:02:27.648Z,68.13
2019-03-06T15:04:57.292Z,70.23
2019-03-06T15:07:26.916Z,73.73
2019-03-06T15:09:56.551Z,73.27
2019-03-06T15:12:26.121Z,73.17
2019-03-06T15:14:55.569Z,65.50
2019-03-06T15:17:25.029Z,70.73
2019-03-06T15:19:55.126Z,72.83
2019-03-06T15:22:24.624Z,72.57
2019-03-06T15:24:55.883Z,57.90
2019-03-06T15:27:25.410Z,68.10
2019-03-06T15:29:54.988Z,67.67
2019-03-06T15:32:24.857Z,66.90
2019-03-06T15:34:54.463Z,67.50
2019-03-06T15:37:24.490Z,45.77
2019-03-06T15:39:54.081Z,68.13
2019-03-06T15:42:23.552Z,69.00
2019-03-06T15:44:53.214Z,67.20
2019-03-06T15:47:22.975Z,67.90
2019-03-06T15:49:52.607Z,68.93
2019-03-06T15:52:22.052Z,71.50
2019-03-06T15:54:52.738Z,71.50
2019-03-06T15:57:24.057Z,71.73
2019-03-06T15:59:53.469Z,71.03
2019-03-06T16:02:24.723Z,71.03
2019-03-06T16:04:54.169Z,67.00
2019-03-06T16:07:23.963Z,70.23
2019-03-06T16:09:55.250Z,73.53
2019-03-06T16:12:24.671Z,71.43
2019-03-06T16:14:54.180Z,67.03
2019-03-06T16:17:24.969Z,74.17
2019-03-06T16:19:55.228Z,72.40
2019-03-06T16:22:26.126Z,73.17
2019-03-06T16:24:55.581Z,67.97
2019-03-06T16:27:25.311Z,66.70
2019-03-06T16:29:55.915Z,65.40
2019-03-06T16:32:27.977Z,64.17
2019-03-06T16:34:57.430Z,63.97
2019-03-06T16:37:28.214Z,65.57
2019-03-06T16:39:58.880Z,66.67
2019-03-06T16:42:28.885Z,63.27
2019-03-06T16:44:58.973Z,64.27
2019-03-06T16:47:29.195Z,65.13
2019-03-06T16:49:59.524Z,66.60
2019-03-06T16:52:29.778Z,67.73
2019-03-06T16:54:59.695Z,68.00
2019-03-06T16:57:29.887Z,67.00
2019-03-06T17:00:00.336Z,66.93
2019-03-06T17:02:30.581Z,63.83
2019-03-06T17:05:00.986Z,63.97
2019-03-06T17:07:31.319Z,66.00
2019-03-06T17:10:01.745Z,66.60
2019-03-06T17:12:32.514Z,66.73
2019-03-06T17:15:02.958Z,67.67
2019-03-06T17:17:33.532Z,65.87
2019-03-06T17:20:04.312Z,65.73
2019-03-06T17:22:34.705Z,65.40
2019-03-06T17:25:05.812Z,64.07
2019-03-06T17:27:36.141Z,61.43
2019-03-06T17:30:09.621Z,61.10
2019-03-06T17:33:00.091Z,59.20
2019-03-06T17:35:31.323Z,54.70
2019-03-06T17:38:02.204Z,53.20
2019-03-06T17:40:53.065Z,54.57
2019-03-06T17:43:24.914Z,51.67
2019-03-06T17:45:55.327Z,48.70
2019-03-06T17:48:25.997Z,48.43
2019-03-06T17:50:56.338Z,45.37
2019-03-06T17:53:27.380Z,43.17
2019-03-06T17:55:58.140Z,41.47
2019-03-06T17:58:28.545Z,41.83
2019-03-06T18:01:05.528Z,37.00
2019-03-06T18:03:44.148Z,33.63
2019-03-06T18:06:14.439Z,33.20
2019-03-06T18:08:44.758Z,31.03
2019-03-06T18:11:15.099Z,27.43
2019-03-06T18:13:45.842Z,25.17
2019-03-06T18:16:16.317Z,24.53
2019-03-06T18:18:46.765Z,20.17
2019-03-06T18:21:17.346Z,20.37
2019-03-06T18:23:47.883Z,16.60
2019-03-06T18:26:18.610Z,16.00
2019-03-06T18:28:49.102Z,14.47
2019-03-06T18:31:20.781Z,13.03
2019-03-06T18:33:52.412Z,10.40
2019-03-06T18:36:23.081Z,9.93
2019-03-06T18:38:56.647Z,8.73
2019-03-06T18:41:27.909Z,9.37
2019-03-06T18:43:58.546Z,9.23
2019-03-06T18:46:29.397Z,8.87
2019-03-06T18:48:59.939Z,10.00
2019-03-06T18:51:31.478Z,8.70
2019-03-06T18:54:01.956Z,10.83
2019-03-06T18:56:32.591Z,8.70
2019-03-06T18:59:03.121Z,9.93
2019-03-06T19:01:33.435Z,9.33
2019-03-06T19:04:04.184Z,11.53
2019-03-06T19:06:55.975Z,8.90
2019-03-06T19:09:26.690Z,9.63
2019-03-06T19:11:59.644Z,10.33
2019-03-06T19:14:30.308Z,9.57
2019-03-06T19:17:01.017Z,9.70
2019-03-06T19:19:31.600Z,10.27
2019-03-06T19:22:20.862Z,9.87
2019-03-06T19:24:53.043Z,10.80
2019-03-06T19:27:23.650Z,10.03
2019-03-06T19:30:00.384Z,10.50
2019-03-06T19:32:33.662Z,10.67
2019-03-06T19:35:06.366Z,9.73
2019-03-06T19:37:54.951Z,10.43
2019-03-06T19:40:31.087Z,10.70
2019-03-06T19:43:23.462Z,9.70
2019-03-06T19:46:09.242Z,9.63
2019-03-06T19:48:44.273Z,9.97
2019-03-06T19:51:21.953Z,11.93
2019-03-06T19:54:11.263Z,23.93
2019-03-06T19:56:50.007Z,26.83
2019-03-06T19:59:20.688Z,28.47
2019-03-06T20:01:52.517Z,29.70
2019-03-06T20:04:22.935Z,29.50
2019-03-06T20:06:53.575Z,32.77
2019-03-06T20:09:26.441Z,36.20
2019-03-06T20:11:57.217Z,38.03
2019-03-06T20:14:27.825Z,40.27
2019-03-06T20:16:58.318Z,40.87
2019-03-06T20:19:28.998Z,44.57
2019-03-06T20:21:59.539Z,47.93
2019-03-06T20:24:32.043Z,48.70
2019-03-06T20:27:02.569Z,47.60
2019-03-06T20:29:33.113Z,48.30
2019-03-06T20:32:03.687Z,50.73
2019-03-06T20:34:34.246Z,51.07
2019-03-06T20:37:04.742Z,54.30
2019-03-06T20:39:35.689Z,56.20
2019-03-06T20:42:06.093Z,57.93
2019-03-06T20:44:37.045Z,60.90
2019-03-06T20:47:07.378Z,59.67
2019-03-06T20:49:37.920Z,59.23
2019-03-06T20:52:08.580Z,59.50
2019-03-06T20:54:40.756Z,61.77
2019-03-06T20:57:12.309Z,63.40
2019-03-06T20:59:42.989Z,63.07
2019-03-06T21:02:13.500Z,60.80
2019-03-06T21:04:43.934Z,61.97
2019-03-06T21:07:14.373Z,60.93
2019-03-06T21:09:44.677Z,61.03
2019-03-06T21:12:15.081Z,58.63
2019-03-06T21:14:48.587Z,55.47
2019-03-06T21:17:19.010Z,55.23
2019-03-06T21:19:49.492Z,54.97
2019-03-06T21:22:20.031Z,53.00
2019-03-06T21:24:50.517Z,51.10
2019-03-06T21:27:20.927Z,51.10
2019-03-06T21:29:51.457Z,52.17
2019-03-06T21:32:21.763Z,49.17
2019-03-06T21:34:52.122Z,47.70
2019-03-06T21:37:22.463Z,48.17
2019-03-06T21:39:52.884Z,48.03
2019-03-06T21:42:23.270Z,47.17
2019-03-06T21:44:53.765Z,46.83
2019-03-06T21:47:24.954Z,45.00
2019-03-06T21:50:13.960Z,44.57
2019-03-06T21:52:43.708Z,44.07
2019-03-06T21:55:14.003Z,44.13
2019-03-06T21:57:43.860Z,44.30
2019-03-06T22:00:17.317Z,41.47
2019-03-06T22:02:48.821Z,42.00
2019-03-06T22:05:18.649Z,40.53
2019-03-06T22:07:50.276Z,41.37
2019-03-06T22:10:21.102Z,41.30
2019-03-06T22:12:50.571Z,38.87
2019-03-06T22:15:20.017Z,40.33
2019-03-06T22:17:49.550Z,39.83
2019-03-06T22:20:20.179Z,39.17
2019-03-06T22:22:51.811Z,39.47
2019-03-06T22:25:22.532Z,40.37
2019-03-06T22:27:52.015Z,39.73
2019-03-06T22:30:22.695Z,40.33
2019-03-06T22:32:53.845Z,38.80
2019-03-06T22:35:23.309Z,39.93
2019-03-06T22:37:53.882Z,39.90
2019-03-06T22:40:23.649Z,39.03
2019-03-06T22:42:53.079Z,40.23
2019-03-06T22:45:22.846Z,36.80
2019-03-06T22:47:53.438Z,36.30
2019-03-06T22:50:23.520Z,35.53
2019-03-06T22:52:54.487Z,36.63
2019-03-06T22:55:25.036Z,34.10
2019-03-06T22:57:54.514Z,34.80
2019-03-06T23:00:57.867Z,32.47
2019-03-06T23:03:29.183Z,31.83
2019-03-06T23:05:58.759Z,28.97
2019-03-06T23:08:28.240Z,28.50
2019-03-06T23:10:58.976Z,27.77
2019-03-06T23:13:29.742Z,26.40
2019-03-06T23:16:00.605Z,27.30
2019-03-06T23:18:30.051Z,26.40
2019-03-06T23:20:59.748Z,26.07
2019-03-06T23:23:29.237Z,26.10
2019-03-06T23:25:58.922Z,26.40
2019-03-06T23:28:28.425Z,23.70
2019-03-06T23:30:58.002Z,23.90
2019-03-06T23:33:29.010Z,22.57
2019-03-06T23:35:58.428Z,22.90
2019-03-06T23:38:28.127Z,22.47
2019-03-06T23:40:57.841Z,22.03
2019-03-06T23:43:27.299Z,23.20
2019-03-06T23:45:58.015Z,20.63
2019-03-06T23:48:27.502Z,21.70
2019-03-06T23:51:19.284Z,21.47
2019-03-06T23:53:54.197Z,19.73
2019-03-06T23:56:23.980Z,20.83
2019-03-06T23:58:53.412Z,20.47
